Terminal Aerodrome Forecast
Issued by NWS

Current Version | Previous Version | Text Only | Print | Product List | Glossary Off
Versions: 1 2 3 4 5 6 7 8 9 10 11 12 13 14 15 16 17 18 19 20 21

000
FTUS41 KRLX 220500
TAFCKB
TAF
KCKB 220534Z 2206/2306 00000KT P6SM SKC
     FM220700 00000KT 4SM BR FEW045
     FM220800 00000KT 2SM BR FEW001
     FM220900 00000KT 1/2SM FG OVC001
     FM221230 VRB03KT 2SM BR FEW002 FEW045
     FM221300 VRB03KT P6SM SCT045=

USA.gov is the U.S. government's official web portal to all federal, state and local government web resources and services.